Time;durP1;ratioP1;P1;durP2;ratioP2;P2;SDS_P1;SDS_P2;PMS_P1;PMS_P2;Temp;Humidity;BMP_temperature;BMP_pressure;BME280_temperature;BME280_humidity;BME280_pressure;Samples;Min_cycle;Max_cycle;Signal;HPM_P1;HPM_P2
2021/08/11 00:02:15;;;;;;;13.00;11.90;;;17.10;78.10;;;;;;5050055;29;20539;-68
2021/08/11 00:04:47;;;;;;;12.63;11.63;;;17.00;78.40;;;;;;5039358;29;20101;-69
2021/08/11 00:07:19;;;;;;;12.27;11.27;;;16.90;78.60;;;;;;5048963;29;20219;-69
2021/08/11 00:09:51;;;;;;;13.02;11.93;;;16.90;78.60;;;;;;5048255;29;20061;-68
2021/08/11 00:12:23;;;;;;;12.77;11.57;;;16.90;78.80;;;;;;5032188;29;20114;-68
2021/08/11 00:14:55;;;;;;;13.20;12.05;;;16.90;79.00;;;;;;5047622;29;20756;-68
2021/08/11 00:17:27;;;;;;;13.60;12.50;;;16.80;79.20;;;;;;5035172;29;20049;-68
2021/08/11 00:19:59;;;;;;;12.90;11.90;;;16.80;78.90;;;;;;5051389;29;20079;-69
2021/08/11 00:22:31;;;;;;;13.38;12.10;;;16.70;79.20;;;;;;5049931;29;20519;-70
2021/08/11 00:25:04;;;;;;;12.88;11.77;;;16.70;79.50;;;;;;5046109;29;20408;-70
2021/08/11 00:27:36;;;;;;;13.18;11.98;;;16.70;79.50;;;;;;5051541;29;20420;-71
2021/08/11 00:30:08;;;;;;;14.32;11.60;;;16.70;79.70;;;;;;5040719;29;20049;-69
2021/08/11 00:32:43;;;;;;;13.00;11.80;;;16.60;79.70;;;;;;5042962;29;20055;-70
2021/08/11 00:35:15;;;;;;;12.88;11.70;;;16.60;79.70;;;;;;5030620;29;20051;-69
2021/08/11 00:37:48;;;;;;;13.00;12.00;;;16.60;79.50;;;;;;5025184;29;20119;-70
2021/08/11 00:40:24;;;;;;;13.85;12.52;;;16.60;79.70;;;;;;5040629;29;20104;-69
2021/08/11 00:42:57;;;;;;;13.25;12.05;;;16.50;79.70;;;;;;5033572;29;20052;-69
2021/08/11 00:45:29;;;;;;;13.05;11.85;;;16.50;79.70;;;;;;5043755;29;20717;-69
2021/08/11 00:48:01;;;;;;;15.07;12.23;;;16.50;79.60;;;;;;5040096;29;20136;-68
2021/08/11 00:50:37;;;;;;;13.20;11.90;;;16.50;79.50;;;;;;5046945;29;20052;-69
2021/08/11 00:53:14;;;;;;;13.38;12.15;;;16.50;79.70;;;;;;5031592;29;20464;-67
2021/08/11 00:55:48;;;;;;;12.70;11.60;;;16.50;79.80;;;;;;5031717;29;20132;-69
2021/08/11 00:58:23;;;;;;;12.82;11.70;;;16.50;79.90;;;;;;5038262;29;20337;-68
2021/08/11 01:00:57;;;;;;;12.65;11.65;;;16.40;80.50;;;;;;5027628;29;20041;-67
2021/08/11 01:03:31;;;;;;;12.73;11.60;;;16.40;80.00;;;;;;5047118;29;20147;-67
2021/08/11 01:06:05;;;;;;;13.23;11.93;;;16.40;80.10;;;;;;5031272;29;20040;-68
2021/08/11 01:08:41;;;;;;;13.40;12.30;;;16.40;80.10;;;;;;5045464;29;20033;-67
2021/08/11 01:11:13;;;;;;;13.20;12.13;;;16.40;79.50;;;;;;5049521;29;20068;-67
2021/08/11 01:13:46;;;;;;;12.93;11.80;;;16.40;79.60;;;;;;5041042;29;20052;-66
2021/08/11 01:16:19;;;;;;;13.23;11.93;;;16.30;80.20;;;;;;5048867;29;20077;-68
2021/08/11 01:18:52;;;;;;;12.38;11.25;;;16.30;80.10;;;;;;5033413;29;20088;-67
2021/08/11 01:21:29;;;;;;;13.32;11.98;;;16.30;80.20;;;;;;5033104;29;20105;-68
2021/08/11 01:24:07;;;;;;;12.95;11.85;;;16.30;80.20;;;;;;5032355;29;20105;-69
2021/08/11 01:26:53;;;;;;;12.43;11.23;;;16.20;80.10;;;;;;5048780;29;20072;-66
2021/08/11 01:30:00;;;;;;;13.02;11.73;;;16.20;80.30;;;;;;5048883;29;20124;-66
2021/08/11 01:32:52;;;;;;;13.60;12.50;;;16.20;79.40;;;;;;5021757;29;20058;-68
2021/08/11 01:35:42;;;;;;;14.85;12.60;;;16.20;79.70;;;;;;5046383;29;20053;-67
2021/08/11 01:38:19;;;;;;;13.63;12.50;;;16.20;80.00;;;;;;5039325;29;20068;-69
2021/08/11 01:41:01;;;;;;;13.45;12.18;;;16.20;79.90;;;;;;5033014;29;20045;-68
2021/08/11 01:43:39;;;;;;;13.10;12.07;;;16.10;79.90;;;;;;5031748;29;20052;-70
2021/08/11 01:46:14;;;;;;;13.80;12.60;;;16.10;79.80;;;;;;5028884;29;20431;-67
2021/08/11 01:48:48;;;;;;;13.82;12.73;;;16.10;79.60;;;;;;5044952;29;20127;-69
2021/08/11 01:51:20;;;;;;;13.93;12.65;;;16.10;80.40;;;;;;5036389;29;20382;-67
2021/08/11 01:53:53;;;;;;;13.55;12.45;;;16.10;79.50;;;;;;5032869;29;20105;-67
2021/08/11 01:56:26;;;;;;;13.32;12.15;;;16.10;79.60;;;;;;5047651;29;20041;-67
2021/08/11 01:59:01;;;;;;;13.70;12.60;;;16.00;79.50;;;;;;5043578;29;20045;-68
2021/08/11 02:01:42;;;;;;;13.90;12.90;;;16.00;79.30;;;;;;5032465;29;20052;-67
2021/08/11 02:04:15;;;;;;;13.93;12.68;;;16.00;80.50;;;;;;5045406;29;20132;-68
2021/08/11 02:06:50;;;;;;;13.15;12.07;;;15.90;81.20;;;;;;5028082;29;20570;-66
2021/08/11 02:09:23;;;;;;;13.57;12.38;;;15.90;80.00;;;;;;5046219;29;20104;-66
2021/08/11 02:11:58;;;;;;;13.80;12.60;;;15.90;81.30;;;;;;5037521;29;20096;-67
2021/08/11 02:14:30;;;;;;;13.52;12.32;;;15.90;81.50;;;;;;5032706;29;20055;-66
2021/08/11 02:17:03;;;;;;;13.88;12.57;;;15.90;81.90;;;;;;5033804;29;20569;-68
2021/08/11 02:19:35;;;;;;;13.65;12.55;;;15.90;81.40;;;;;;5048112;29;20072;-66
2021/08/11 02:22:07;;;;;;;16.42;12.57;;;15.80;80.70;;;;;;5036611;29;20048;-66
2021/08/11 02:24:40;;;;;;;13.77;12.43;;;15.80;81.60;;;;;;5037436;29;20139;-66
2021/08/11 02:27:25;;;;;;;13.48;12.18;;;15.80;80.70;;;;;;5037741;29;20068;-66
2021/08/11 02:30:13;;;;;;;13.77;12.57;;;15.80;81.70;;;;;;5031346;29;20408;-66
2021/08/11 02:32:54;;;;;;;13.43;12.32;;;15.70;81.10;;;;;;5036393;29;20048;-68
2021/08/11 02:35:36;;;;;;;13.15;12.05;;;15.70;81.00;;;;;;5033067;29;20124;-66
2021/08/11 02:38:10;;;;;;;13.30;12.15;;;15.70;81.20;;;;;;5047548;29;20457;-66
2021/08/11 02:41:10;;;;;;;13.48;12.38;;;15.70;81.30;;;;;;5037971;29;20048;-66
2021/08/11 02:44:05;;;;;;;;;;;15.70;80.70;;;;;;5032943;29;20041;-66
2021/08/11 02:46:43;;;;;;;14.65;13.25;;;15.70;80.80;;;;;;5032027;29;19927;-67
2021/08/11 02:49:30;;;;;;;13.45;12.20;;;15.60;81.30;;;;;;5032838;29;20128;-66
2021/08/11 02:52:08;;;;;;;13.45;12.35;;;15.60;80.80;;;;;;5033538;29;20480;-66
2021/08/11 02:54:41;;;;;;;13.65;12.35;;;15.60;81.30;;;;;;5037748;29;20147;-68
2021/08/11 02:57:15;;;;;;;13.63;12.43;;;15.50;81.50;;;;;;5049010;29;20053;-66
2021/08/11 02:59:48;;;;;;;13.45;12.30;;;15.50;82.30;;;;;;5031016;29;20143;-69
2021/08/11 03:02:20;;;;;;;13.73;12.52;;;15.50;82.80;;;;;;5048526;29;20056;-67
2021/08/11 03:04:53;;;;;;;14.02;12.63;;;15.50;83.00;;;;;;5038308;29;20049;-67
2021/08/11 03:07:25;;;;;;;13.90;12.70;;;15.50;83.20;;;;;;5031142;29;20052;-67
2021/08/11 03:09:57;;;;;;;13.82;12.68;;;15.40;83.40;;;;;;5029535;29;20053;-67
2021/08/11 03:12:30;;;;;;;13.50;12.30;;;15.40;83.00;;;;;;5036407;29;20044;-67
2021/08/11 03:15:04;;;;;;;13.85;12.57;;;15.30;82.70;;;;;;5049906;29;20758;-68
2021/08/11 03:17:37;;;;;;;13.25;12.13;;;15.30;82.50;;;;;;5051428;29;20124;-66
2021/08/11 03:20:10;;;;;;;13.48;12.30;;;15.30;82.10;;;;;;5041068;29;20570;-66
2021/08/11 03:22:42;;;;;;;14.00;12.80;;;15.20;81.50;;;;;;5050646;29;20388;-66
2021/08/11 03:25:16;;;;;;;13.07;11.98;;;15.20;82.00;;;;;;5049349;29;20069;-67
2021/08/11 03:27:49;;;;;;;12.75;11.75;;;15.20;81.50;;;;;;5050619;29;20072;-67
2021/08/11 03:30:24;;;;;;;13.13;11.80;;;15.20;81.40;;;;;;5039879;29;20583;-65
2021/08/11 03:32:58;;;;;;;12.77;11.77;;;15.20;82.00;;;;;;5035243;29;20451;-65
2021/08/11 03:35:31;;;;;;;13.20;12.10;;;15.20;83.20;;;;;;5048105;29;20077;-65
2021/08/11 03:38:03;;;;;;;13.07;11.98;;;15.10;85.10;;;;;;5041576;29;20053;-68
2021/08/11 03:40:35;;;;;;;13.70;12.30;;;15.10;84.30;;;;;;5048638;29;20048;-69
2021/08/11 03:43:07;;;;;;;13.55;12.35;;;15.10;84.30;;;;;;5048515;29;20055;-65
2021/08/11 03:45:39;;;;;;;12.75;11.75;;;15.10;83.40;;;;;;5026012;29;20076;-66
2021/08/11 03:48:11;;;;;;;13.18;12.10;;;15.00;83.30;;;;;;5020350;29;20565;-66
2021/08/11 03:50:46;;;;;;;13.45;12.18;;;14.90;85.40;;;;;;5034382;29;20542;-67
2021/08/11 03:53:18;;;;;;;13.38;12.18;;;14.90;85.00;;;;;;5050762;29;20124;-68
2021/08/11 03:55:49;;;;;;;14.68;12.32;;;15.00;85.40;;;;;;5049524;29;20147;-66
2021/08/11 03:58:23;;;;;;;13.00;11.88;;;15.00;85.30;;;;;;5051289;29;20087;-67
2021/08/11 04:00:55;;;;;;;12.88;11.68;;;15.00;85.00;;;;;;5036395;29;20049;-67
2021/08/11 04:03:27;;;;;;;13.70;12.40;;;15.00;84.80;;;;;;5042942;29;20423;-67
2021/08/11 04:05:59;;;;;;;12.88;11.73;;;15.00;85.10;;;;;;5050350;29;20053;-66
2021/08/11 04:08:30;;;;;;;12.95;11.85;;;15.00;85.40;;;;;;5049415;29;20587;-67
2021/08/11 04:11:03;;;;;;;13.30;12.00;;;15.00;85.50;;;;;;5049696;29;20049;-69
2021/08/11 04:13:35;;;;;;;13.48;12.30;;;15.00;85.30;;;;;;5050272;29;20507;-67
2021/08/11 04:16:07;;;;;;;13.07;11.82;;;15.00;85.30;;;;;;5049084;29;20447;-67
2021/08/11 04:18:39;;;;;;;14.00;12.60;;;15.10;85.50;;;;;;5051435;29;20048;-66
2021/08/11 04:21:11;;;;;;;12.88;11.85;;;15.00;85.10;;;;;;5048176;29;20056;-67
2021/08/11 04:23:42;;;;;;;12.77;11.73;;;14.90;85.20;;;;;;5047924;29;20056;-67
2021/08/11 04:26:15;;;;;;;12.70;11.40;;;14.90;85.40;;;;;;5051231;29;20146;-66
2021/08/11 04:28:48;;;;;;;12.75;11.65;;;14.80;85.10;;;;;;5049010;29;20053;-69
2021/08/11 04:31:20;;;;;;;16.92;12.32;;;14.80;84.50;;;;;;5048887;29;20048;-66
2021/08/11 04:33:51;;;;;;;12.40;11.20;;;14.80;84.40;;;;;;5046962;29;20402;-67
2021/08/11 04:36:23;;;;;;;12.93;11.80;;;14.90;84.50;;;;;;5052839;29;20411;-67
2021/08/11 04:38:55;;;;;;;11.52;10.52;;;14.90;85.20;;;;;;5033589;29;20152;-67
2021/08/11 04:41:27;;;;;;;12.75;10.82;;;14.90;84.10;;;;;;5053722;29;20049;-67
2021/08/11 04:43:59;;;;;;;12.18;11.07;;;14.90;83.70;;;;;;5037463;29;20041;-66
2021/08/11 04:46:31;;;;;;;11.75;10.63;;;15.00;84.50;;;;;;5051903;29;20490;-67
2021/08/11 04:49:03;;;;;;;12.40;11.20;;;15.00;84.30;;;;;;5049613;29;20052;-68
2021/08/11 04:51:35;;;;;;;12.20;11.00;;;15.00;86.40;;;;;;5047148;29;20109;-66
2021/08/11 04:54:07;;;;;;;11.88;10.68;;;15.00;85.50;;;;;;5051379;29;20411;-66
2021/08/11 04:56:38;;;;;;;13.32;11.88;;;15.10;85.00;;;;;;5050332;29;20468;-65
2021/08/11 04:59:10;;;;;;;11.73;10.60;;;15.20;84.60;;;;;;5052025;29;20109;-66
2021/08/11 05:01:42;;;;;;;12.23;11.13;;;15.30;84.10;;;;;;5048497;29;20053;-66
2021/08/11 05:04:14;;;;;;;12.20;11.02;;;15.40;85.50;;;;;;5051804;29;20128;-67
2021/08/11 05:06:46;;;;;;;11.85;10.75;;;15.40;85.60;;;;;;5047029;29;20051;-68
2021/08/11 05:09:18;;;;;;;12.18;11.18;;;15.40;84.70;;;;;;5048217;29;20084;-69
2021/08/11 05:11:50;;;;;;;12.82;11.73;;;15.40;84.40;;;;;;5049324;29;20052;-66
2021/08/11 05:14:22;;;;;;;12.88;11.68;;;15.40;84.70;;;;;;5050279;29;20079;-68
2021/08/11 05:16:54;;;;;;;12.30;11.15;;;15.40;84.70;;;;;;5048640;29;20151;-67
2021/08/11 05:19:26;;;;;;;11.93;10.82;;;15.40;84.30;;;;;;5048893;29;20060;-67
2021/08/11 05:21:59;;;;;;;13.25;11.95;;;15.60;84.30;;;;;;5046993;29;20689;-66
2021/08/11 05:24:31;;;;;;;13.10;11.90;;;15.60;84.20;;;;;;5049417;29;20132;-68
2021/08/11 05:27:07;;;;;;;12.32;11.25;;;15.70;84.30;;;;;;5048519;29;20048;-67
2021/08/11 05:29:42;;;;;;;12.77;11.65;;;15.80;84.90;;;;;;5046741;29;20083;-65
2021/08/11 05:32:15;;;;;;;13.27;11.98;;;15.70;84.10;;;;;;5048917;29;20051;-65
2021/08/11 05:34:46;;;;;;;13.50;12.30;;;15.70;83.90;;;;;;5045640;29;20052;-67
2021/08/11 05:37:19;;;;;;;12.93;11.82;;;15.70;84.10;;;;;;5047471;29;20048;-67
2021/08/11 05:39:51;;;;;;;12.13;10.93;;;15.70;84.00;;;;;;5048116;29;20845;-65
2021/08/11 05:42:22;;;;;;;12.75;11.48;;;15.70;83.60;;;;;;5048721;29;20064;-66
2021/08/11 05:44:54;;;;;;;13.13;12.00;;;15.80;84.90;;;;;;5049320;29;20064;-65
2021/08/11 05:47:30;;;;;;;13.48;12.27;;;16.00;84.10;;;;;;5048297;29;20057;-66
2021/08/11 05:50:06;;;;;;;13.43;11.98;;;16.20;83.60;;;;;;5047352;29;20056;-67
2021/08/11 05:52:38;;;;;;;13.50;12.30;;;16.40;84.00;;;;;;5047797;29;20044;-65
2021/08/11 05:55:10;;;;;;;13.88;12.60;;;16.60;82.90;;;;;;5048234;29;20060;-65
2021/08/11 05:57:44;;;;;;;14.15;12.75;;;16.80;82.60;;;;;;5030875;29;20090;-66
2021/08/11 06:00:16;;;;;;;14.15;12.95;;;16.90;82.60;;;;;;5046472;29;20057;-66
2021/08/11 06:02:48;;;;;;;13.35;12.05;;;16.90;81.80;;;;;;5047595;29;20629;-68
2021/08/11 06:05:31;;;;;;;13.63;12.43;;;16.90;81.50;;;;;;5038613;29;20060;-66
2021/08/11 06:08:03;;;;;;;13.38;12.15;;;16.90;81.60;;;;;;5046407;29;20109;-67
2021/08/11 06:10:35;;;;;;;13.80;12.40;;;17.00;82.20;;;;;;5048440;29;20143;-65
2021/08/11 06:13:07;;;;;;;14.10;12.80;;;17.10;81.80;;;;;;5048868;29;20156;-65
2021/08/11 06:15:38;;;;;;;14.73;12.68;;;17.10;82.10;;;;;;5047618;29;20055;-67
2021/08/11 06:18:10;;;;;;;13.07;11.98;;;17.30;82.60;;;;;;5048772;29;20537;-66
2021/08/11 06:20:42;;;;;;;13.23;11.82;;;17.40;82.70;;;;;;5047248;29;20065;-66
2021/08/11 06:23:14;;;;;;;13.77;12.55;;;17.30;82.10;;;;;;5047168;29;20132;-65
2021/08/11 06:25:47;;;;;;;14.35;13.15;;;17.40;82.40;;;;;;5050405;29;20238;-67
2021/08/11 06:28:19;;;;;;;14.75;13.40;;;17.50;82.00;;;;;;5046474;29;20076;-66
2021/08/11 06:30:50;;;;;;;15.15;13.65;;;17.70;81.60;;;;;;5047038;29;20051;-66
2021/08/11 06:33:22;;;;;;;14.88;13.35;;;17.80;81.50;;;;;;5049683;29;20081;-66
2021/08/11 06:35:54;;;;;;;14.02;12.82;;;17.90;81.20;;;;;;5046117;29;20606;-65
2021/08/11 06:38:26;;;;;;;14.10;12.90;;;17.90;81.30;;;;;;5044059;29;20132;-65
2021/08/11 06:40:58;;;;;;;14.70;13.32;;;18.10;81.20;;;;;;5045976;29;20065;-65
2021/08/11 06:43:30;;;;;;;15.25;13.95;;;18.40;81.10;;;;;;5049469;29;20567;-65
2021/08/11 06:46:03;;;;;;;14.38;13.18;;;18.60;79.70;;;;;;5037835;29;20060;-68
2021/08/11 06:48:38;;;;;;;14.93;13.63;;;18.70;79.30;;;;;;5047239;29;20056;-66
2021/08/11 06:51:11;;;;;;;14.85;13.65;;;19.00;78.80;;;;;;5050835;29;20057;-66
2021/08/11 06:53:43;;;;;;;14.63;13.18;;;19.30;79.10;;;;;;5050468;29;20060;-66
2021/08/11 06:56:15;;;;;;;15.60;14.18;;;19.30;77.90;;;;;;5051687;29;20583;-65
2021/08/11 06:58:47;;;;;;;15.27;14.07;;;19.20;77.50;;;;;;5051327;29;20055;-67
2021/08/11 07:01:19;;;;;;;15.15;13.95;;;19.00;77.40;;;;;;5051006;29;20049;-67
2021/08/11 07:03:51;;;;;;;14.45;13.35;;;18.90;79.10;;;;;;5051763;29;20053;-66
2021/08/11 07:06:22;;;;;;;15.13;13.90;;;18.80;79.70;;;;;;5052234;29;20113;-66
2021/08/11 07:08:54;;;;;;;14.93;13.70;;;18.90;80.60;;;;;;5052279;29;20156;-67
2021/08/11 07:11:26;;;;;;;15.30;14.00;;;18.90;79.00;;;;;;5041793;29;20049;-66
2021/08/11 07:13:58;;;;;;;14.32;13.23;;;18.90;79.40;;;;;;5051709;29;20109;-66
2021/08/11 07:16:30;;;;;;;14.38;13.18;;;18.90;80.00;;;;;;5038387;29;20156;-67
2021/08/11 07:19:03;;;;;;;14.07;13.00;;;18.90;80.00;;;;;;5042706;29;20053;-68
2021/08/11 07:21:35;;;;;;;14.20;13.00;;;18.80;77.80;;;;;;5051900;29;20053;-66
2021/08/11 07:24:07;;;;;;;15.10;13.77;;;18.90;78.80;;;;;;5037232;29;20128;-66
2021/08/11 07:26:39;;;;;;;14.63;13.43;;;18.90;79.60;;;;;;5049234;29;20056;-66
2021/08/11 07:29:10;;;;;;;15.45;14.25;;;19.00;79.20;;;;;;5051907;29;20053;-66
2021/08/11 07:31:42;;;;;;;15.23;14.02;;;19.30;80.50;;;;;;5050304;29;20610;-66
2021/08/11 07:34:14;;;;;;;14.65;13.45;;;19.40;78.70;;;;;;5051392;29;20617;-66
2021/08/11 07:36:46;;;;;;;15.02;13.73;;;19.50;77.30;;;;;;5050427;29;20081;-68
2021/08/11 07:39:18;;;;;;;14.32;13.13;;;19.50;77.50;;;;;;5052007;29;20075;-68
2021/08/11 07:41:50;;;;;;;14.18;13.07;;;19.50;76.40;;;;;;5050329;29;20649;-67
2021/08/11 07:44:22;;;;;;;14.77;13.57;;;19.50;77.60;;;;;;5051516;29;20076;-66
2021/08/11 07:46:54;;;;;;;15.15;13.95;;;19.80;77.50;;;;;;5050545;29;20041;-66
2021/08/11 07:49:26;;;;;;;16.15;14.70;;;20.00;78.40;;;;;;5049036;29;20131;-67
2021/08/11 07:51:58;;;;;;;15.30;14.10;;;20.00;77.80;;;;;;5049163;29;20395;-67
2021/08/11 07:54:30;;;;;;;15.77;14.40;;;20.00;77.80;;;;;;5047242;29;20411;-68
2021/08/11 07:57:02;;;;;;;15.00;13.90;;;20.10;77.40;;;;;;5050165;29;20053;-68
2021/08/11 07:59:34;;;;;;;14.90;13.52;;;20.10;77.30;;;;;;5046879;29;20072;-66
2021/08/11 08:02:10;;;;;;;15.30;13.88;;;20.30;73.50;;;;;;5030862;29;20558;-66
2021/08/11 08:04:42;;;;;;;14.55;13.45;;;20.40;75.60;;;;;;5047191;29;20879;-66
2021/08/11 08:07:14;;;;;;;14.93;13.82;;;20.60;75.90;;;;;;5050633;29;20049;-66
2021/08/11 08:09:46;;;;;;;14.82;13.63;;;20.70;73.60;;;;;;5048166;29;20049;-68
2021/08/11 08:12:17;;;;;;;15.30;14.18;;;20.90;75.30;;;;;;5049133;29;20838;-68
2021/08/11 08:14:49;;;;;;;15.63;14.43;;;21.10;72.20;;;;;;5046936;29;20444;-67
2021/08/11 08:17:21;;;;;;;15.07;13.88;;;21.20;69.70;;;;;;5048567;29;20507;-66
2021/08/11 08:20:15;;;;;;;15.23;14.02;;;21.40;70.80;;;;;;5036929;29;20049;-66
2021/08/11 08:22:48;;;;;;;15.57;14.48;;;21.60;68.90;;;;;;5048933;29;20041;-68
2021/08/11 08:25:21;;;;;;;16.10;14.80;;;21.80;68.90;;;;;;5049728;29;20040;-66
2021/08/11 08:27:54;;;;;;;16.65;15.20;;;21.90;67.40;;;;;;5051627;29;20095;-66
2021/08/11 08:30:46;;;;;;;16.27;14.98;;;22.10;63.70;;;;;;5049274;29;20037;-67
2021/08/11 08:33:18;;;;;;;16.05;14.75;;;22.20;65.90;;;;;;5053335;29;20044;-68
2021/08/11 08:35:50;;;;;;;16.00;14.80;;;22.40;65.80;;;;;;5049530;29;21300;-67
2021/08/11 08:38:23;;;;;;;16.13;14.95;;;22.50;65.50;;;;;;5049987;29;20045;-67
2021/08/11 08:41:13;;;;;;;16.40;15.20;;;22.70;65.10;;;;;;5047269;29;20063;-66
2021/08/11 08:43:45;;;;;;;15.93;14.75;;;23.00;65.90;;;;;;5049745;29;20045;-66
2021/08/11 08:46:19;;;;;;;16.45;15.13;;;23.20;60.90;;;;;;5049379;29;20133;-69
2021/08/11 08:48:51;;;;;;;16.42;15.10;;;23.20;64.30;;;;;;5046159;29;20051;-68
2021/08/11 08:51:24;;;;;;;16.60;15.30;;;23.20;63.30;;;;;;5050247;29;20080;-66
2021/08/11 08:53:56;;;;;;;16.90;15.50;;;23.10;64.30;;;;;;5045815;29;20052;-66
2021/08/11 08:56:28;;;;;;;17.13;15.77;;;23.30;67.10;;;;;;5047339;29;20040;-67
2021/08/11 08:59:00;;;;;;;16.48;15.25;;;23.40;62.00;;;;;;5051203;29;20048;-67
2021/08/11 09:01:34;;;;;;;16.38;15.07;;;23.50;61.00;;;;;;5047245;29;20103;-69
2021/08/11 09:04:07;;;;;;;16.83;15.52;;;23.60;65.30;;;;;;5051640;29;20053;-67
2021/08/11 09:06:39;;;;;;;16.60;15.10;;;23.70;67.40;;;;;;5048715;29;20051;-67
2021/08/11 09:09:11;;;;;;;16.52;15.32;;;23.90;64.80;;;;;;5051686;29;20144;-67
2021/08/11 09:11:43;;;;;;;16.73;15.32;;;24.00;63.10;;;;;;5047433;29;20044;-67
2021/08/11 09:14:19;;;;;;;17.52;15.65;;;24.20;65.20;;;;;;5048486;29;20080;-69
2021/08/11 09:16:54;;;;;;;16.88;15.55;;;24.30;57.90;;;;;;5049770;29;20067;-68
2021/08/11 09:19:38;;;;;;;16.08;14.85;;;24.30;61.20;;;;;;5049058;29;20509;-67
2021/08/11 09:22:13;;;;;;;15.35;14.15;;;24.30;61.30;;;;;;5046265;29;20055;-67
2021/08/11 09:24:45;;;;;;;16.35;15.05;;;24.30;59.40;;;;;;5046896;29;20690;-67
2021/08/11 09:27:26;;;;;;;16.23;15.02;;;24.40;62.00;;;;;;5049091;29;20055;-68
2021/08/11 09:30:12;;;;;;;16.33;15.02;;;24.30;60.70;;;;;;5047511;29;20076;-67
2021/08/11 09:32:56;;;;;;;17.08;15.77;;;24.30;58.20;;;;;;5047420;29;20060;-66
2021/08/11 09:35:29;;;;;;;16.35;15.05;;;24.40;58.30;;;;;;5049786;29;20049;-66
2021/08/11 09:38:05;;;;;;;16.30;14.77;;;24.50;59.20;;;;;;5045531;29;20144;-68
2021/08/11 09:40:39;;;;;;;15.68;14.45;;;24.50;57.90;;;;;;5045673;29;20135;-68
2021/08/11 09:43:43;;;;;;;16.35;15.15;;;24.70;53.90;;;;;;5046537;29;20159;-66
2021/08/11 09:46:29;;;;;;;16.08;14.80;;;24.70;54.80;;;;;;5045972;29;20542;-69
2021/08/11 09:49:01;;;;;;;15.93;14.73;;;24.80;54.90;;;;;;5046899;29;20116;-68
2021/08/11 09:51:33;;;;;;;16.52;15.23;;;24.90;54.10;;;;;;5048273;29;20548;-68
2021/08/11 09:54:06;;;;;;;17.33;16.02;;;25.00;52.50;;;;;;5046614;29;20041;-66
2021/08/11 09:56:43;;;;;;;17.27;16.05;;;25.00;54.20;;;;;;5046597;29;20121;-67
2021/08/11 09:59:14;;;;;;;17.95;16.55;;;25.10;55.90;;;;;;5048147;29;20048;-66
2021/08/11 10:01:46;;;;;;;17.45;16.15;;;25.20;55.70;;;;;;5046042;29;20072;-68
2021/08/11 10:04:20;;;;;;;17.45;16.15;;;25.40;56.50;;;;;;5047148;29;20863;-67
2021/08/11 10:06:52;;;;;;;17.92;16.63;;;25.40;53.90;;;;;;5046052;29;20135;-66
2021/08/11 10:09:25;;;;;;;17.60;16.30;;;25.60;53.60;;;;;;5045973;29;20107;-66
2021/08/11 10:11:59;;;;;;;17.75;16.45;;;25.70;53.50;;;;;;5048258;29;20120;-66
2021/08/11 10:14:35;;;;;;;18.48;17.08;;;25.80;55.90;;;;;;5047461;29;20114;-67
2021/08/11 10:17:07;;;;;;;18.65;17.13;;;25.90;52.90;;;;;;5050216;29;20726;-66
2021/08/11 10:19:39;;;;;;;18.70;17.30;;;25.90;55.30;;;;;;5047978;29;20844;-66
2021/08/11 10:22:14;;;;;;;18.67;17.13;;;25.80;55.40;;;;;;5048442;29;20049;-66
2021/08/11 10:24:50;;;;;;;18.77;17.08;;;25.80;56.90;;;;;;5044903;29;20502;-67
2021/08/11 10:27:23;;;;;;;19.35;17.65;;;25.70;55.10;;;;;;5045181;29;20619;-66
2021/08/11 10:29:55;;;;;;;18.50;17.02;;;25.80;56.80;;;;;;5048279;29;20147;-66
2021/08/11 10:32:27;;;;;;;18.27;16.88;;;25.80;56.70;;;;;;5045675;29;20144;-66
2021/08/11 10:35:01;;;;;;;18.80;17.23;;;25.80;57.60;;;;;;5029280;29;20056;-66
2021/08/11 10:37:34;;;;;;;19.25;17.65;;;25.90;57.90;;;;;;5047325;29;20139;-68
2021/08/11 10:40:06;;;;;;;18.10;16.77;;;26.00;57.80;;;;;;5047011;29;20049;-67
2021/08/11 10:42:38;;;;;;;17.90;16.50;;;26.00;57.30;;;;;;5048925;29;20315;-66
2021/08/11 10:45:11;;;;;;;18.83;17.33;;;26.00;57.20;;;;;;5028501;29;20049;-66
2021/08/11 10:47:44;;;;;;;18.73;17.15;;;26.20;52.90;;;;;;5045384;29;20507;-67
2021/08/11 10:50:16;;;;;;;18.67;17.27;;;26.30;56.90;;;;;;5043415;29;20076;-67
2021/08/11 10:53:06;;;;;;;18.98;17.58;;;26.40;55.90;;;;;;5044709;29;20139;-67
2021/08/11 10:55:45;;;;;;;20.15;18.45;;;26.60;57.30;;;;;;5045372;29;20049;-63
2021/08/11 10:58:40;;;;;;;19.30;17.65;;;26.70;55.10;;;;;;5047036;29;20558;-65
2021/08/11 11:01:33;;;;;;;19.25;17.67;;;26.80;56.00;;;;;;5047537;29;20073;-63
2021/08/11 11:04:05;;;;;;;19.27;17.77;;;26.80;54.10;;;;;;5044902;29;20053;-64
2021/08/11 11:06:52;;;;;;;18.95;17.52;;;26.60;53.60;;;;;;5044612;29;20048;-64
2021/08/11 11:09:24;;;;;;;18.95;17.52;;;26.80;55.30;;;;;;5046163;29;20479;-63
2021/08/11 11:11:56;;;;;;;18.38;17.02;;;26.80;54.60;;;;;;5045617;29;20048;-64
2021/08/11 11:14:45;;;;;;;18.27;16.88;;;27.00;53.90;;;;;;5046267;29;20068;-63
2021/08/11 11:17:25;;;;;;;19.15;17.63;;;27.00;51.10;;;;;;5046051;29;20049;-66
2021/08/11 11:20:07;;;;;;;18.70;17.30;;;27.10;47.20;;;;;;5048865;29;20148;-63
2021/08/11 11:22:49;;;;;;;18.42;17.02;;;27.20;41.90;;;;;;5046713;29;20069;-63
2021/08/11 11:25:55;;;;;;;18.80;17.40;;;27.30;44.30;;;;;;5043695;29;20057;-64
2021/08/11 11:28:53;;;;;;;18.88;17.50;;;27.50;48.20;;;;;;5030926;29;20630;-64
2021/08/11 11:31:32;;;;;;;18.58;17.27;;;27.70;47.70;;;;;;5046938;29;20053;-63
2021/08/11 11:34:33;;;;;;;19.17;17.63;;;27.80;47.80;;;;;;5034021;29;20047;-64
2021/08/11 11:37:09;;;;;;;18.75;17.35;;;27.90;44.10;;;;;;5046998;29;20058;-64
2021/08/11 11:39:42;;;;;;;20.58;18.98;;;28.00;42.70;;;;;;5051739;29;20040;-64
2021/08/11 11:42:32;;;;;;;24.35;22.02;;;28.10;44.90;;;;;;5053418;29;20144;-63
2021/08/11 11:45:08;;;;;;;;;;;28.10;44.00;;;;;;5038919;29;20436;-65
2021/08/11 11:47:45;;;;;;;19.83;18.33;;;28.20;49.60;;;;;;5047812;29;20042;-64
2021/08/11 11:50:19;;;;;;;31.65;29.08;;;28.40;47.10;;;;;;5047331;29;20048;-66
2021/08/11 11:52:57;;;;;;;20.05;18.58;;;28.60;47.40;;;;;;5050447;29;20053;-66
2021/08/11 11:55:36;;;;;;;25.50;23.33;;;28.60;47.20;;;;;;5049515;29;20051;-64
2021/08/11 11:58:13;;;;;;;18.90;17.40;;;28.70;45.60;;;;;;5050282;29;20083;-64
2021/08/11 12:01:07;;;;;;;19.13;17.60;;;28.80;47.40;;;;;;5047910;29;20044;-65
2021/08/11 12:03:42;;;;;;;18.77;17.35;;;28.70;44.90;;;;;;5047926;29;20423;-66
2021/08/11 12:06:14;;;;;;;19.15;17.65;;;28.80;46.60;;;;;;5049631;29;20056;-66
2021/08/11 12:08:57;;;;;;;18.88;17.42;;;28.90;47.70;;;;;;5049273;29;20049;-69
2021/08/11 12:11:29;;;;;;;18.52;17.13;;;28.80;49.60;;;;;;5041156;29;20135;-67
2021/08/11 12:14:02;;;;;;;19.15;17.75;;;28.90;48.40;;;;;;5050782;29;20068;-69
2021/08/11 12:16:41;;;;;;;19.40;17.90;;;29.00;44.20;;;;;;5048691;29;20072;-67
2021/08/11 12:19:17;;;;;;;18.85;17.45;;;29.00;48.50;;;;;;5049968;29;20048;-67
2021/08/11 12:21:49;;;;;;;18.63;17.25;;;28.80;46.10;;;;;;5049570;29;20068;-68
2021/08/11 12:24:21;;;;;;;19.15;17.75;;;28.90;44.60;;;;;;5038303;29;20052;-69
2021/08/11 12:26:53;;;;;;;19.15;17.75;;;28.90;46.60;;;;;;5050674;29;20132;-68
2021/08/11 12:29:27;;;;;;;19.08;17.55;;;29.00;43.30;;;;;;5054323;29;20780;-70
2021/08/11 12:31:59;;;;;;;19.27;17.58;;;29.00;45.60;;;;;;5018076;29;20047;-67
2021/08/11 12:34:31;;;;;;;19.27;17.80;;;28.80;47.90;;;;;;5032805;29;20048;-67
2021/08/11 12:37:03;;;;;;;19.45;18.05;;;29.10;48.70;;;;;;5051178;29;20049;-69
2021/08/11 12:39:38;;;;;;;18.98;17.58;;;29.10;46.90;;;;;;5047043;29;20036;-68
2021/08/11 12:42:10;;;;;;;19.77;18.27;;;29.10;44.80;;;;;;5048588;29;20159;-65
2021/08/11 12:44:54;;;;;;;19.05;17.50;;;29.10;45.70;;;;;;5052616;29;20662;-66
2021/08/11 12:47:26;;;;;;;19.27;17.77;;;29.10;46.50;;;;;;5047727;29;20808;-66
2021/08/11 12:50:15;;;;;;;18.77;17.38;;;29.20;45.50;;;;;;5048842;29;20044;-66
2021/08/11 12:52:55;;;;;;;19.38;17.77;;;29.20;43.30;;;;;;5047155;29;20047;-66
2021/08/11 12:55:33;;;;;;;;;;;29.40;46.10;;;;;;5048277;29;20131;-67
2021/08/11 12:58:05;;;;;;;19.45;18.08;;;29.40;46.00;;;;;;5051954;29;19985;-66
2021/08/11 13:00:41;;;;;;;19.88;18.38;;;29.60;45.00;;;;;;5047598;29;20136;-65
2021/08/11 13:03:14;;;;;;;20.08;18.67;;;29.60;43.50;;;;;;5050241;29;20148;-65
2021/08/11 13:05:53;;;;;;;20.92;19.33;;;29.70;43.90;;;;;;5049598;29;20071;-65
2021/08/11 13:08:37;;;;;;;20.95;19.35;;;29.80;46.40;;;;;;5046672;29;20056;-66